Time;durP1;ratioP1;P1;durP2;ratioP2;P2;SDS_P1;SDS_P2;PMS_P1;PMS_P2;Temp;Humidity;BMP_temperature;BMP_pressure;BME280_temperature;BME280_humidity;BME280_pressure;Samples;Min_cycle;Max_cycle;Signal;HPM_P1;HPM_P2
2023/12/18 00:00:28;;;;;;;;;;;18.90;55.00;;;;;;1527426;75;1100;-73
2023/12/18 00:02:30;;;;;;;;;;;18.90;55.00;;;;;;1530739;75;785;-72
2023/12/18 00:04:31;;;;;;;;;;;18.80;54.90;;;;;;1531329;77;774;-72
2023/12/18 00:06:33;;;;;;;;;;;18.90;55.00;;;;;;1524072;76;727;-73
2023/12/18 00:08:35;;;;;;;;;;;18.80;54.90;;;;;;1534188;75;779;-74
2023/12/18 00:10:37;;;;;;;;;;;18.90;55.00;;;;;;1530901;76;1098;-74
2023/12/18 00:12:39;;;;;;;;;;;18.90;54.90;;;;;;1528296;75;789;-76
2023/12/18 00:14:41;;;;;;;;;;;19.00;55.00;;;;;;1521175;77;1941;-79
2023/12/18 00:16:43;;;;;;;;;;;18.90;54.90;;;;;;1532804;75;718;-73
2023/12/18 00:18:45;;;;;;;;;;;18.80;54.90;;;;;;1528121;75;726;-72
2023/12/18 00:20:47;;;;;;;;;;;18.80;54.90;;;;;;1537743;77;1151;-73
2023/12/18 00:22:49;;;;;;;;;;;18.90;55.00;;;;;;1536929;75;783;-73
2023/12/18 00:24:51;;;;;;;;;;;18.80;54.90;;;;;;1532112;77;692;-73
2023/12/18 00:26:53;;;;;;;;;;;18.80;54.90;;;;;;1533001;75;729;-76
2023/12/18 00:28:55;;;;;;;;;;;18.90;55.00;;;;;;1531399;76;851;-72
2023/12/18 00:30:56;;;;;;;;;;;18.80;54.90;;;;;;1527983;77;1094;-72
2023/12/18 00:32:58;;;;;;;;;;;18.90;55.00;;;;;;1532625;77;823;-72
2023/12/18 00:35:00;;;;;;;;;;;18.80;54.90;;;;;;1528601;76;1937;-75
2023/12/18 00:37:02;;;;;;;;;;;18.90;54.90;;;;;;1532561;77;1502;-73
2023/12/18 00:39:05;;;;;;;;;;;18.80;54.80;;;;;;1525918;76;782;-77
2023/12/18 00:41:07;;;;;;;;;;;18.90;54.90;;;;;;1532096;77;1116;-72
2023/12/18 00:43:09;;;;;;;;;;;18.90;55.00;;;;;;1528967;77;773;-72
2023/12/18 00:45:11;;;;;;;;;;;18.80;54.90;;;;;;1539321;76;747;-77
2023/12/18 00:47:13;;;;;;;;;;;18.80;54.90;;;;;;1529406;75;733;-72
2023/12/18 00:49:15;;;;;;;;;;;18.80;54.90;;;;;;1523555;77;814;-75
2023/12/18 00:51:17;;;;;;;;;;;18.80;54.80;;;;;;1535477;75;1167;-72
2023/12/18 00:53:19;;;;;;;;;;;18.90;54.90;;;;;;1526383;77;787;-73
2023/12/18 00:55:21;;;;;;;;;;;18.80;54.80;;;;;;1526379;76;1955;-74
2023/12/18 00:57:23;;;;;;;;;;;18.90;54.90;;;;;;1529807;75;718;-76
2023/12/18 00:59:25;;;;;;;;;;;18.90;54.90;;;;;;1524796;76;1138;-72
2023/12/18 01:01:27;;;;;;;;;;;18.90;54.90;;;;;;1536695;77;851;-72
2023/12/18 01:03:29;;;;;;;;;;;18.90;54.90;;;;;;1534076;76;727;-72
2023/12/18 01:05:31;;;;;;;;;;;18.80;54.80;;;;;;1528781;77;732;-73
2023/12/18 01:07:33;;;;;;;;;;;18.80;54.80;;;;;;1531990;77;756;-72
2023/12/18 01:09:35;;;;;;;;;;;18.80;54.80;;;;;;1529936;75;1178;-72
2023/12/18 01:11:37;;;;;;;;;;;18.80;54.70;;;;;;1539092;75;750;-73
2023/12/18 01:13:38;;;;;;;;;;;18.80;54.80;;;;;;1526555;77;693;-73
2023/12/18 01:15:40;;;;;;;;;;;18.80;54.80;;;;;;1530441;77;1929;-73
2023/12/18 01:17:42;;;;;;;;;;;18.90;54.80;;;;;;1526059;77;745;-75
2023/12/18 01:19:44;;;;;;;;;;;18.80;54.70;;;;;;1531498;75;1144;-72
2023/12/18 01:21:46;;;;;;;;;;;18.80;54.80;;;;;;1531884;72;3051;-72
2023/12/18 01:23:48;;;;;;;;;;;18.80;54.70;;;;;;1594633;73;682;-71
2023/12/18 01:25:50;;;;;;;;;;;18.80;54.70;;;;;;1595256;73;783;-71
2023/12/18 01:27:53;;;;;;;;;;;18.80;54.70;;;;;;1591467;74;775;-71
2023/12/18 01:29:54;;;;;;;;;;;18.80;54.70;;;;;;1595638;73;781;-71
2023/12/18 01:31:56;;;;;;;;;;;18.80;54.70;;;;;;1587059;73;1272;-70
2023/12/18 01:33:58;;;;;;;;;;;18.80;54.70;;;;;;1596955;73;1620;-69
2023/12/18 01:36:00;;;;;;;;;;;18.80;54.70;;;;;;1591113;73;1944;-70
2023/12/18 01:38:02;;;;;;;;;;;18.80;54.70;;;;;;1596027;73;785;-71
2023/12/18 01:40:04;;;;;;;;;;;18.80;54.70;;;;;;1600395;73;776;-71
2023/12/18 01:42:06;;;;;;;;;;;18.80;54.70;;;;;;1595320;73;1251;-69
2023/12/18 01:44:07;;;;;;;;;;;18.80;54.60;;;;;;1602097;73;765;-70
2023/12/18 01:46:09;;;;;;;;;;;18.80;54.60;;;;;;1600189;73;795;-70
2023/12/18 01:48:11;;;;;;;;;;;18.80;54.70;;;;;;1596279;73;803;-70
2023/12/18 01:50:13;;;;;;;;;;;18.80;54.70;;;;;;1594402;73;794;-70
2023/12/18 01:52:15;;;;;;;;;;;18.80;54.60;;;;;;1598516;73;1156;-69
2023/12/18 01:54:19;;;;;;;;;;;18.80;54.70;;;;;;1603282;73;729;-71
2023/12/18 01:56:22;;;;;;;;;;;18.80;54.60;;;;;;1601017;73;1938;-69
2023/12/18 01:58:24;;;;;;;;;;;18.80;54.70;;;;;;1596931;72;706;-69
2023/12/18 02:00:26;;;;;;;;;;;18.80;54.70;;;;;;1600010;72;800;-70
2023/12/18 02:02:27;;;;;;;;;;;18.80;54.60;;;;;;1602150;73;1154;-71
2023/12/18 02:04:29;;;;;;;;;;;18.80;54.60;;;;;;1596316;72;800;-72
2023/12/18 02:06:31;;;;;;;;;;;18.80;54.60;;;;;;1594046;73;776;-71
2023/12/18 02:08:33;;;;;;;;;;;18.80;54.60;;;;;;1601541;72;787;-70
2023/12/18 02:10:35;;;;;;;;;;;18.80;54.50;;;;;;1600499;73;744;-70
2023/12/18 02:12:37;;;;;;;;;;;18.80;54.60;;;;;;1599295;73;1150;-70
2023/12/18 02:14:39;;;;;;;;;;;18.80;54.60;;;;;;1596284;73;1950;-70
2023/12/18 02:16:41;;;;;;;;;;;18.80;54.60;;;;;;1606463;72;796;-70
2023/12/18 02:18:45;;;;;;;;;;;18.80;54.70;;;;;;1599647;73;745;-71
2023/12/18 02:20:47;;;;;;;;;;;18.70;54.60;;;;;;1592586;73;773;-71
2023/12/18 02:22:51;;;;;;;;;;;18.80;54.50;;;;;;1597283;73;1174;-69
2023/12/18 02:24:53;;;;;;;;;;;18.80;54.60;;;;;;1596418;73;474;-71
2023/12/18 02:26:55;;;;;;;;;;;18.70;54.60;;;;;;1596913;73;756;-72
2023/12/18 02:28:57;;;;;;;;;;;18.80;54.60;;;;;;1609600;73;720;-70
2023/12/18 02:30:59;;;;;;;;;;;18.80;54.50;;;;;;1609353;73;760;-71
2023/12/18 02:33:01;;;;;;;;;;;18.80;54.60;;;;;;1585325;73;1480;-70
2023/12/18 02:35:03;;;;;;;;;;;18.80;54.60;;;;;;1600661;72;1936;-70
2023/12/18 02:37:05;;;;;;;;;;;18.80;54.50;;;;;;1595579;73;770;-70
2023/12/18 02:39:07;;;;;;;;;;;18.80;54.60;;;;;;1595260;73;798;-71
2023/12/18 02:41:09;;;;;;;;;;;18.80;54.60;;;;;;1595096;73;771;-70
2023/12/18 02:43:10;;;;;;;;;;;18.70;54.50;;;;;;1600080;72;1244;-70
2023/12/18 02:45:13;;;;;;;;;;;18.80;54.50;;;;;;1599617;73;693;-70
2023/12/18 02:47:15;;;;;;;;;;;18.70;54.50;;;;;;1597163;73;805;-72
2023/12/18 02:49:17;;;;;;;;;;;18.70;54.50;;;;;;1594622;73;781;-71
2023/12/18 02:51:18;;;;;;;;;;;18.70;54.50;;;;;;1596317;73;812;-71
2023/12/18 02:53:20;;;;;;;;;;;18.80;54.60;;;;;;1588034;73;1076;-71
2023/12/18 02:55:22;;;;;;;;;;;18.80;54.50;;;;;;1600091;73;1936;-70
2023/12/18 02:57:24;;;;;;;;;;;18.80;54.60;;;;;;1600645;73;810;-70
2023/12/18 02:59:26;;;;;;;;;;;18.80;54.60;;;;;;1595620;72;771;-70
2023/12/18 03:01:28;;;;;;;;;;;18.80;54.50;;;;;;1588979;73;1166;-70
2023/12/18 03:03:30;;;;;;;;;;;18.80;54.50;;;;;;1599112;73;781;-69
2023/12/18 03:05:31;;;;;;;;;;;18.70;54.50;;;;;;1603794;73;651;-69
2023/12/18 03:07:33;;;;;;;;;;;18.80;54.50;;;;;;1599845;73;798;-70
2023/12/18 03:09:35;;;;;;;;;;;18.80;54.50;;;;;;1598297;73;794;-70
2023/12/18 03:11:37;;;;;;;;;;;18.80;54.50;;;;;;1607301;73;1170;-71
2023/12/18 03:13:39;;;;;;;;;;;18.70;54.40;;;;;;1597467;72;805;-70
2023/12/18 03:15:41;;;;;;;;;;;18.80;54.40;;;;;;1598775;73;1932;-70
2023/12/18 03:17:43;;;;;;;;;;;18.70;54.40;;;;;;1601487;73;762;-71
2023/12/18 03:19:45;;;;;;;;;;;18.70;54.50;;;;;;1597687;73;780;-72
2023/12/18 03:21:47;;;;;;;;;;;18.70;54.40;;;;;;1592655;73;1167;-70
2023/12/18 03:23:48;;;;;;;;;;;18.70;54.40;;;;;;1602859;73;978;-68
2023/12/18 03:25:50;;;;;;;;;;;18.80;54.40;;;;;;1592911;73;795;-69
2023/12/18 03:27:52;;;;;;;;;;;18.70;54.50;;;;;;1605664;73;767;-70
2023/12/18 03:29:54;;;;;;;;;;;18.70;54.40;;;;;;1590144;73;1455;-70
2023/12/18 03:31:56;;;;;;;;;;;18.80;54.40;;;;;;1607015;73;1183;-70
2023/12/18 03:33:58;;;;;;;;;;;18.70;54.40;;;;;;1594746;73;769;-70
2023/12/18 03:36:00;;;;;;;;;;;18.70;54.40;;;;;;1604620;73;1910;-70
2023/12/18 03:38:01;;;;;;;;;;;18.70;54.40;;;;;;1602759;73;736;-70
2023/12/18 03:40:04;;;;;;;;;;;18.70;54.40;;;;;;1594184;73;759;-70
2023/12/18 03:42:05;;;;;;;;;;;18.70;54.40;;;;;;1591503;73;1237;-70
2023/12/18 03:44:07;;;;;;;;;;;18.70;54.40;;;;;;1595289;73;654;-70
2023/12/18 03:46:09;;;;;;;;;;;18.70;54.40;;;;;;1593184;73;778;-70
2023/12/18 03:48:11;;;;;;;;;;;18.70;54.40;;;;;;1594555;72;794;-69
2023/12/18 03:50:13;;;;;;;;;;;18.70;54.40;;;;;;1599436;72;808;-71
2023/12/18 03:52:15;;;;;;;;;;;18.80;54.40;;;;;;1598998;73;1192;-69
2023/12/18 03:54:17;;;;;;;;;;;18.70;54.40;;;;;;1599097;73;761;-71
2023/12/18 03:56:18;;;;;;;;;;;18.70;54.40;;;;;;1595091;73;1934;-70
2023/12/18 03:58:20;;;;;;;;;;;18.70;54.40;;;;;;1590691;73;786;-70
2023/12/18 04:00:22;;;;;;;;;;;18.70;54.40;;;;;;1602199;73;792;-69
2023/12/18 04:02:24;;;;;;;;;;;18.80;54.40;;;;;;1598897;73;1170;-71
2023/12/18 04:04:26;;;;;;;;;;;18.70;54.30;;;;;;1600577;72;771;-70
2023/12/18 04:06:28;;;;;;;;;;;18.70;54.40;;;;;;1587196;73;794;-70
2023/12/18 04:08:30;;;;;;;;;;;18.70;54.30;;;;;;1608569;73;773;-71
2023/12/18 04:10:32;;;;;;;;;;;18.80;54.40;;;;;;1601237;73;784;-70
2023/12/18 04:12:34;;;;;;;;;;;18.70;54.40;;;;;;1608496;72;1166;-70
2023/12/18 04:14:35;;;;;;;;;;;18.70;54.30;;;;;;1603520;73;767;-71
2023/12/18 04:16:37;;;;;;;;;;;18.80;54.40;;;;;;1591270;72;1934;-71
2023/12/18 04:18:39;;;;;;;;;;;18.70;54.30;;;;;;1599571;73;797;-70
2023/12/18 04:20:41;;;;;;;;;;;18.70;54.30;;;;;;1608176;73;767;-70
2023/12/18 04:22:43;;;;;;;;;;;19.00;54.40;;;;;;1588941;73;1152;-70
2023/12/18 04:24:45;;;;;;;;;;;18.70;54.30;;;;;;1600945;73;1436;-70
2023/12/18 04:26:47;;;;;;;;;;;18.70;54.30;;;;;;1595800;73;763;-70
2023/12/18 04:28:49;;;;;;;;;;;18.70;54.30;;;;;;1603013;73;785;-70
2023/12/18 04:30:50;;;;;;;;;;;18.70;54.30;;;;;;1591935;73;766;-71
2023/12/18 04:32:52;;;;;;;;;;;18.70;54.30;;;;;;1598745;73;1189;-70
2023/12/18 04:34:54;;;;;;;;;;;18.70;54.30;;;;;;1603761;73;768;-70
2023/12/18 04:36:56;;;;;;;;;;;18.70;54.20;;;;;;1598060;73;1914;-71
2023/12/18 04:38:58;;;;;;;;;;;18.70;54.30;;;;;;1596888;72;785;-70
2023/12/18 04:41:00;;;;;;;;;;;18.70;54.20;;;;;;1595333;72;732;-70
2023/12/18 04:43:02;;;;;;;;;;;18.60;54.10;;;;;;1599898;73;1226;-70
2023/12/18 04:45:04;;;;;;;;;;;18.70;54.20;;;;;;1600751;73;791;-70
2023/12/18 04:47:06;;;;;;;;;;;18.60;54.10;;;;;;1607540;72;738;-69
2023/12/18 04:49:09;;;;;;;;;;;18.70;54.20;;;;;;1598119;73;708;-69
2023/12/18 04:51:10;;;;;;;;;;;18.70;54.20;;;;;;1608128;73;749;-70
2023/12/18 04:53:12;;;;;;;;;;;18.60;54.10;;;;;;1602552;73;1164;-70
2023/12/18 04:55:14;;;;;;;;;;;18.70;54.20;;;;;;1598379;73;767;-70
2023/12/18 04:57:16;;;;;;;;;;;18.70;54.20;;;;;;1600499;73;1963;-70
2023/12/18 04:59:18;;;;;;;;;;;18.60;54.10;;;;;;1600938;73;731;-71
2023/12/18 05:01:20;;;;;;;;;;;18.70;54.20;;;;;;1604513;73;818;-71
2023/12/18 05:03:22;;;;;;;;;;;18.60;54.10;;;;;;1606468;73;1072;-69
2023/12/18 05:05:25;;;;;;;;;;;18.70;54.20;;;;;;1604451;73;759;-70
2023/12/18 05:07:27;;;;;;;;;;;18.70;54.20;;;;;;1600382;73;732;-71
2023/12/18 05:09:29;;;;;;;;;;;18.60;54.10;;;;;;1604244;73;791;-71
2023/12/18 05:11:31;;;;;;;;;;;18.70;54.20;;;;;;1605172;73;1234;-70
2023/12/18 05:13:33;;;;;;;;;;;18.60;54.00;;;;;;1603923;73;779;-70
2023/12/18 05:15:35;;;;;;;;;;;18.70;54.20;;;;;;1598624;73;805;-71
2023/12/18 05:17:37;;;;;;;;;;;18.60;54.10;;;;;;1594603;73;707;-71
2023/12/18 05:19:39;;;;;;;;;;;18.60;54.10;;;;;;1601735;72;995;-71
2023/12/18 05:21:41;;;;;;;;;;;18.60;54.10;;;;;;1598614;73;1336;-71
2023/12/18 05:23:47;;;;;;;;;;;18.70;54.20;;;;;;1593992;72;806;-70
2023/12/18 05:25:47;;;;;;;;;;;18.70;54.20;;;;;;1603194;72;1855;-70
2023/12/18 05:27:48;;;;;;;;;;;18.60;54.00;;;;;;1606692;73;788;-71
2023/12/18 05:29:50;;;;;;;;;;;18.60;54.00;;;;;;1600982;73;753;-70
2023/12/18 05:31:52;;;;;;;;;;;18.70;54.20;;;;;;1603866;73;1166;-71
2023/12/18 05:33:54;;;;;;;;;;;18.70;54.20;;;;;;1593811;72;779;-71
2023/12/18 05:35:56;;;;;;;;;;;18.60;54.00;;;;;;1606752;72;1944;-70
2023/12/18 05:37:58;;;;;;;;;;;18.60;54.00;;;;;;1606581;73;729;-70
2023/12/18 05:40:00;;;;;;;;;;;18.60;54.00;;;;;;1599270;73;765;-71
2023/12/18 05:42:02;;;;;;;;;;;18.60;54.00;;;;;;1600136;73;1254;-71
2023/12/18 05:44:03;;;;;;;;;;;18.70;54.10;;;;;;1609920;73;760;-70
2023/12/18 05:46:05;;;;;;;;;;;18.70;54.20;;;;;;1601687;72;679;-72
2023/12/18 05:48:07;;;;;;;;;;;18.70;54.10;;;;;;1602240;73;768;-71
2023/12/18 05:50:09;;;;;;;;;;;18.60;54.00;;;;;;1602957;73;747;-71
2023/12/18 05:52:11;;;;;;;;;;;18.60;54.00;;;;;;1606628;73;1137;-70
2023/12/18 05:54:13;;;;;;;;;;;18.60;54.00;;;;;;1608497;72;821;-70
2023/12/18 05:56:15;;;;;;;;;;;18.70;54.10;;;;;;1595249;73;2143;-71
2023/12/18 05:58:17;;;;;;;;;;;18.60;54.00;;;;;;1589662;73;801;-70
2023/12/18 06:00:22;;;;;;;;;;;18.60;53.90;;;;;;1598983;73;782;-71
2023/12/18 06:02:24;;;;;;;;;;;18.60;53.90;;;;;;1591523;73;1257;-71
2023/12/18 06:04:25;;;;;;;;;;;18.70;54.10;;;;;;1596574;73;909;-70
2023/12/18 06:06:27;;;;;;;;;;;18.60;53.90;;;;;;1604332;73;804;-70
2023/12/18 06:08:29;;;;;;;;;;;18.60;53.90;;;;;;1593404;73;729;-68
2023/12/18 06:10:31;;;;;;;;;;;18.60;53.90;;;;;;1607565;73;785;-70
2023/12/18 06:12:33;;;;;;;;;;;18.60;53.90;;;;;;1598218;73;1161;-70
2023/12/18 06:14:35;;;;;;;;;;;18.60;53.90;;;;;;1600016;73;794;-69
2023/12/18 06:16:37;;;;;;;;;;;18.60;53.90;;;;;;1593747;73;1934;-71
2023/12/18 06:18:38;;;;;;;;;;;18.70;54.10;;;;;;1603069;73;1412;-70
2023/12/18 06:20:40;;;;;;;;;;;18.60;53.90;;;;;;1603790;73;772;-70
2023/12/18 06:22:42;;;;;;;;;;;18.70;54.00;;;;;;1599952;73;1190;-69
2023/12/18 06:24:44;;;;;;;;;;;18.60;53.90;;;;;;1559408;74;798;-71
2023/12/18 06:26:46;;;;;;;;;;;18.60;53.90;;;;;;1598140;73;667;-71
2023/12/18 06:28:48;;;;;;;;;;;18.60;53.90;;;;;;1586899;73;778;-71
2023/12/18 06:30:50;;;;;;;;;;;18.60;53.90;;;;;;1608059;73;743;-71
2023/12/18 06:32:51;;;;;;;;;;;18.60;53.90;;;;;;1605891;73;1200;-71
2023/12/18 06:34:53;;;;;;;;;;;18.60;53.90;;;;;;1604642;73;763;-71
2023/12/18 06:36:55;;;;;;;;;;;18.60;53.90;;;;;;1605948;73;1922;-71
2023/12/18 06:38:57;;;;;;;;;;;18.60;53.90;;;;;;1603853;73;647;-70
2023/12/18 06:40:59;;;;;;;;;;;18.60;53.90;;;;;;1596403;73;799;-71
2023/12/18 06:43:01;;;;;;;;;;;18.60;53.90;;;;;;1603149;72;1157;-70
2023/12/18 06:45:03;;;;;;;;;;;18.60;53.90;;;;;;1599020;72;757;-70
2023/12/18 06:47:05;;;;;;;;;;;18.60;53.90;;;;;;1603151;73;754;-70
2023/12/18 06:49:06;;;;;;;;;;;18.60;53.90;;;;;;1593945;72;748;-70
2023/12/18 06:51:09;;;;;;;;;;;18.60;53.90;;;;;;1598659;73;771;-71
2023/12/18 06:53:11;;;;;;;;;;;18.60;53.90;;;;;;1605756;73;1167;-70
2023/12/18 06:55:13;;;;;;;;;;;18.60;53.90;;;;;;1609352;73;806;-71
2023/12/18 06:57:16;;;;;;;;;;;18.60;53.90;;;;;;1602022;73;1933;-70
2023/12/18 06:59:17;;;;;;;;;;;18.60;53.80;;;;;;1590992;73;717;-70
2023/12/18 07:01:19;;;;;;;;;;;18.60;53.80;;;;;;1606098;73;788;-70
2023/12/18 07:03:21;;;;;;;;;;;18.60;53.90;;;;;;1598446;72;1201;-69
2023/12/18 07:05:23;;;;;;;;;;;18.60;53.80;;;;;;1600305;73;807;-70
2023/12/18 07:07:25;;;;;;;;;;;18.60;53.80;;;;;;1595036;72;778;-71
2023/12/18 07:09:27;;;;;;;;;;;18.60;53.80;;;;;;1601771;73;739;-71
2023/12/18 07:11:29;;;;;;;;;;;18.60;53.80;;;;;;1598584;72;1161;-71
2023/12/18 07:13:31;;;;;;;;;;;18.60;53.80;;;;;;1589311;72;1402;-70
2023/12/18 07:15:33;;;;;;;;;;;18.60;53.80;;;;;;1600075;73;655;-69
2023/12/18 07:17:35;;;;;;;;;;;18.60;53.80;;;;;;1596996;72;1919;-69
2023/12/18 07:19:42;;;;;;;;;;;18.60;53.80;;;;;;1606559;72;771;-69
2023/12/18 07:21:44;;;;;;;;;;;18.60;53.80;;;;;;1605528;73;1189;-71
2023/12/18 07:23:46;;;;;;;;;;;18.60;53.80;;;;;;1573355;71;3072;-73
2023/12/18 07:25:48;;;;;;;;;;;18.50;53.80;;;;;;1540655;75;764;-76
2023/12/18 07:27:50;;;;;;;;;;;18.60;53.70;;;;;;1547811;75;759;-72
2023/12/18 07:29:52;;;;;;;;;;;18.50;53.80;;;;;;1541386;75;682;-71
2023/12/18 07:31:54;;;;;;;;;;;18.60;53.70;;;;;;1538483;75;775;-73
2023/12/18 07:33:56;;;;;;;;;;;18.60;53.80;;;;;;1552325;75;1233;-70
2023/12/18 07:35:58;;;;;;;;;;;18.50;53.80;;;;;;1541749;75;770;-70
2023/12/18 07:38:00;;;;;;;;;;;18.50;53.80;;;;;;1556703;75;1953;-70
2023/12/18 07:40:03;;;;;;;;;;;18.50;53.70;;;;;;1536207;75;789;-71
2023/12/18 07:42:05;;;;;;;;;;;18.60;53.80;;;;;;1563604;74;762;-69
2023/12/18 07:44:06;;;;;;;;;;;18.60;53.70;;;;;;1574092;75;1163;-70
2023/12/18 07:46:21;;;;;;;;;;;18.60;53.70;;;;;;1563073;74;776;-71
2023/12/18 07:48:24;;;;;;;;;;;18.50;53.80;;;;;;1573560;75;787;-72
2023/12/18 07:50:26;;;;;;;;;;;18.60;53.70;;;;;;1566643;75;768;-70
2023/12/18 07:52:28;;;;;;;;;;;18.50;53.70;;;;;;1567030;74;1159;-69
2023/12/18 07:54:30;;;;;;;;;;;18.60;53.80;;;;;;1565848;74;784;-72
2023/12/18 07:56:32;;;;;;;;;;;18.60;53.70;;;;;;1558704;74;822;-71
2023/12/18 07:58:34;;;;;;;;;;;18.60;53.70;;;;;;1569699;75;1934;-73
2023/12/18 08:00:36;;;;;;;;;;;18.60;53.70;;;;;;1558230;74;809;-71
2023/12/18 08:02:38;;;;;;;;;;;18.50;53.80;;;;;;1567433;74;1210;-71
2023/12/18 08:04:39;;;;;;;;;;;18.60;53.70;;;;;;1570350;75;791;-71
2023/12/18 08:06:41;;;;;;;;;;;18.50;53.80;;;;;;1564211;74;793;-72
2023/12/18 08:08:43;;;;;;;;;;;18.50;53.80;;;;;;1570066;74;785;-72
2023/12/18 08:10:45;;;;;;;;;;;18.50;53.70;;;;;;1572876;74;1421;-73
2023/12/18 08:12:47;;;;;;;;;;;18.50;53.70;;;;;;1562164;74;1155;-67
2023/12/18 08:14:49;;;;;;;;;;;18.60;53.70;;;;;;1565448;74;762;-72
2023/12/18 08:16:51;;;;;;;;;;;18.60;53.70;;;;;;1563931;74;1940;-70
2023/12/18 08:18:53;;;;;;;;;;;18.60;53.80;;;;;;1569908;74;811;-68
2023/12/18 08:20:55;;;;;;;;;;;18.50;53.80;;;;;;1565166;74;766;-72
2023/12/18 08:22:57;;;;;;;;;;;18.60;53.80;;;;;;1576068;74;1194;-71
2023/12/18 08:25:00;;;;;;;;;;;18.50;53.80;;;;;;1575117;75;771;-73
2023/12/18 08:27:02;;;;;;;;;;;18.60;53.70;;;;;;1571146;74;782;-73
2023/12/18 08:29:04;;;;;;;;;;;18.60;53.80;;;;;;1567467;74;789;-71
2023/12/18 08:31:06;;;;;;;;;;;18.50;53.70;;;;;;1567936;74;753;-68
2023/12/18 08:33:08;;;;;;;;;;;18.50;53.70;;;;;;1566289;75;1150;-71
2023/12/18 08:35:10;;;;;;;;;;;18.50;53.70;;;;;;1573863;74;757;-71
2023/12/18 08:37:12;;;;;;;;;;;18.50;53.70;;;;;;1572262;74;1953;-72
2023/12/18 08:39:14;;;;;;;;;;;18.50;53.70;;;;;;1570628;74;1005;-71
2023/12/18 08:41:16;;;;;;;;;;;18.50;53.70;;;;;;1561564;74;995;-70
2023/12/18 08:43:17;;;;;;;;;;;18.50;53.70;;;;;;1566324;74;1176;-71
2023/12/18 08:45:19;;;;;;;;;;;18.50;53.70;;;;;;1564369;74;739;-71
2023/12/18 08:47:21;;;;;;;;;;;18.60;53.70;;;;;;1570375;74;775;-71
2023/12/18 08:49:26;;;;;;;;;;;18.50;53.70;;;;;;1567066;74;775;-72
2023/12/18 08:51:28;;;;;;;;;;;18.50;53.70;;;;;;1572458;74;765;-71
2023/12/18 08:53:30;;;;;;;;;;;18.50;53.70;;;;;;1575451;74;1121;-69
2023/12/18 08:55:32;;;;;;;;;;;18.50;53.70;;;;;;1562765;74;768;-69
2023/12/18 08:57:33;;;;;;;;;;;18.50;53.70;;;;;;1566529;74;1935;-70
2023/12/18 08:59:35;;;;;;;;;;;18.60;53.70;;;;;;1568853;74;799;-70
2023/12/18 09:01:41;;;;;;;;;;;18.50;53.70;;;;;;1562825;75;806;-69
2023/12/18 09:03:41;;;;;;;;;;;18.50;53.60;;;;;;1574645;75;1277;-69
2023/12/18 09:05:43;;;;;;;;;;;18.60;53.70;;;;;;1561849;74;754;-69
2023/12/18 09:07:45;;;;;;;;;;;18.50;53.70;;;;;;1559047;74;1584;-71
2023/12/18 09:09:47;;;;;;;;;;;18.50;53.70;;;;;;1564982;75;655;-72
2023/12/18 09:11:48;;;;;;;;;;;18.50;53.60;;;;;;1573481;74;745;-71
2023/12/18 09:13:50;;;;;;;;;;;18.50;53.70;;;;;;1562921;74;1144;-70
2023/12/18 09:15:52;;;;;;;;;;;18.50;53.70;;;;;;1568447;74;784;-71
2023/12/18 09:17:54;;;;;;;;;;;18.50;53.70;;;;;;1561781;74;1948;-73
2023/12/18 09:19:56;;;;;;;;;;;18.50;53.60;;;;;;1570682;74;752;-70
2023/12/18 09:21:58;;;;;;;;;;;18.50;53.60;;;;;;1570113;74;768;-70
2023/12/18 09:24:00;;;;;;;;;;;18.50;53.60;;;;;;1570342;75;1122;-71
2023/12/18 09:26:01;;;;;;;;;;;18.50;53.70;;;;;;1562266;74;903;-67
2023/12/18 09:28:03;;;;;;;;;;;18.50;53.70;;;;;;1558862;74;645;-71
2023/12/18 09:30:05;;;;;;;;;;;18.50;53.60;;;;;;1560995;74;779;-72
2023/12/18 09:32:07;;;;;;;;;;;18.50;53.70;;;;;;1574172;74;687;-73
2023/12/18 09:34:09;;;;;;;;;;;18.50;53.60;;;;;;1567261;74;1199;-73
2023/12/18 09:36:11;;;;;;;;;;;18.50;53.70;;;;;;1559889;74;761;-72
2023/12/18 09:38:13;;;;;;;;;;;18.50;53.70;;;;;;1568836;74;1942;-69
2023/12/18 09:40:15;;;;;;;;;;;18.50;53.60;;;;;;1562565;74;672;-75
2023/12/18 09:42:17;;;;;;;;;;;18.50;53.70;;;;;;1569902;75;1146;-72
2023/12/18 09:44:19;;;;;;;;;;;18.60;53.70;;;;;;1565697;75;742;-73
2023/12/18 09:46:24;;;;;;;;;;;18.50;53.70;;;;;;1564404;74;783;-73
2023/12/18 09:48:26;;;;;;;;;;;18.50;53.70;;;;;;1570455;74;704;-73
2023/12/18 09:50:28;;;;;;;;;;;18.50;53.70;;;;;;1565107;74;774;-72
2023/12/18 09:52:30;;;;;;;;;;;18.50;53.70;;;;;;1566673;75;1172;-73
2023/12/18 09:54:32;;;;;;;;;;;18.50;53.70;;;;;;1558745;75;870;-73
2023/12/18 09:56:35;;;;;;;;;;;18.50;53.70;;;;;;1551268;75;788;-73
2023/12/18 09:58:37;;;;;;;;;;;18.50;53.80;;;;;;1571476;74;1915;-73
2023/12/18 10:00:39;;;;;;;;;;;18.60;53.60;;;;;;1556998;74;796;-70
2023/12/18 10:02:41;;;;;;;;;;;18.50;53.70;;;;;;1565900;74;1439;-71
2023/12/18 10:04:43;;;;;;;;;;;18.50;53.70;;;;;;1566248;74;725;-73
2023/12/18 10:06:45;;;;;;;;;;;18.60;53.70;;;;;;1561206;74;691;-73
2023/12/18 10:08:48;;;;;;;;;;;18.50;53.60;;;;;;1570790;74;699;-73
2023/12/18 10:10:50;;;;;;;;;;;18.60;53.60;;;;;;1560466;75;647;-72
2023/12/18 10:12:52;;;;;;;;;;;18.60;53.60;;;;;;1558167;74;1166;-74
2023/12/18 10:14:54;;;;;;;;;;;18.50;53.70;;;;;;1552845;75;639;-73
2023/12/18 10:16:56;;;;;;;;;;;18.60;53.70;;;;;;1567175;74;753;-73
2023/12/18 10:18:58;;;;;;;;;;;18.50;53.60;;;;;;1557961;74;1919;-73
2023/12/18 10:21:00;;;;;;;;;;;18.50;53.70;;;;;;1573451;75;727;-73
2023/12/18 10:23:03;;;;;;;;;;;18.50;53.60;;;;;;1560362;75;1188;-73
2023/12/18 10:25:05;;;;;;;;;;;18.60;53.60;;;;;;1557214;75;744;-69
2023/12/18 10:27:07;;;;;;;;;;;18.50;53.60;;;;;;1577932;74;754;-73
2023/12/18 10:29:09;;;;;;;;;;;18.50;53.60;;;;;;1557348;75;772;-70
2023/12/18 10:31:11;;;;;;;;;;;18.50;53.60;;;;;;1566464;74;768;-72
2023/12/18 10:33:13;;;;;;;;;;;18.50;53.60;;;;;;1562115;74;1146;-73
2023/12/18 10:35:15;;;;;;;;;;;18.50;53.60;;;;;;1569462;75;720;-73
2023/12/18 10:37:18;;;;;;;;;;;18.50;53.60;;;;;;1561580;75;746;-71
2023/12/18 10:39:19;;;;;;;;;;;18.50;53.60;;;;;;1568949;75;1941;-72
2023/12/18 10:41:21;;;;;;;;;;;18.50;53.60;;;;;;1569983;74;758;-73
2023/12/18 10:43:27;;;;;;;;;;;18.50;53.60;;;;;;1568624;75;1176;-73
2023/12/18 10:45:29;;;;;;;;;;;18.50;53.60;;;;;;1563265;74;777;-74
2023/12/18 10:47:31;;;;;;;;;;;18.50;53.60;;;;;;1579117;74;786;-70
2023/12/18 10:49:32;;;;;;;;;;;18.50;53.70;;;;;;1569011;75;719;-70
2023/12/18 10:51:36;;;;;;;;;;;18.50;53.60;;;;;;1581536;74;815;-73
2023/12/18 10:53:38;;;;;;;;;;;18.50;53.60;;;;;;1559115;74;1163;-72
2023/12/18 10:55:40;;;;;;;;;;;18.60;53.60;;;;;;1567217;74;773;-72
2023/12/18 10:57:42;;;;;;;;;;;18.50;53.60;;;;;;1567560;74;1936;-70
2023/12/18 10:59:46;;;;;;;;;;;18.50;53.60;;;;;;1564435;74;1454;-70
2023/12/18 11:01:48;;;;;;;;;;;18.50;53.60;;;;;;1567126;74;782;-73
2023/12/18 11:03:50;;;;;;;;;;;18.50;53.60;;;;;;1563073;75;1238;-75
2023/12/18 11:05:54;;;;;;;;;;;18.60;53.60;;;;;;1568235;74;646;-75
2023/12/18 11:07:58;;;;;;;;;;;18.50;53.60;;;;;;1563633;75;888;-72
2023/12/18 11:10:00;;;;;;;;;;;18.50;53.60;;;;;;1574154;74;762;-73
2023/12/18 11:12:02;;;;;;;;;;;18.60;53.60;;;;;;1563028;74;821;-71
2023/12/18 11:14:21;;;;;;;;;;;18.60;53.50;;;;;;1569560;74;1128;-70
2023/12/18 11:16:27;;;;;;;;;;;18.60;53.60;;;;;;1574958;74;1118;-74
2023/12/18 11:18:34;;;;;;;;;;;18.60;53.60;;;;;;1567620;74;1912;-73
2023/12/18 11:20:36;;;;;;;;;;;18.50;53.60;;;;;;1580993;75;1659;-72
2023/12/18 11:22:42;;;;;;;;;;;18.60;53.50;;;;;;1560216;74;1197;-71
2023/12/18 11:24:45;;;;;;;;;;;18.50;53.50;;;;;;1562155;74;1034;-73
2023/12/18 11:26:47;;;;;;;;;;;18.60;53.50;;;;;;1577237;74;697;-72
2023/12/18 11:28:50;;;;;;;;;;;18.50;53.60;;;;;;1570077;75;765;-70
2023/12/18 11:30:52;;;;;;;;;;;18.60;53.60;;;;;;1565427;74;748;-71
2023/12/18 11:32:54;;;;;;;;;;;18.50;53.50;;;;;;1570309;74;1174;-73
2023/12/18 11:34:58;;;;;;;;;;;18.50;53.50;;;;;;1553044;75;782;-74
2023/12/18 11:36:59;;;;;;;;;;;18.50;53.50;;;;;;1559867;74;800;-71
2023/12/18 11:39:03;;;;;;;;;;;18.50;53.50;;;;;;1564795;74;1941;-73
2023/12/18 11:41:05;;;;;;;;;;;18.60;53.50;;;;;;1562386;75;736;-75
2023/12/18 11:43:08;;;;;;;;;;;18.60;53.50;;;;;;1566012;75;1148;-75
2023/12/18 11:45:09;;;;;;;;;;;18.50;53.50;;;;;;1567561;75;740;-72
2023/12/18 11:47:11;;;;;;;;;;;18.60;53.50;;;;;;1561243;75;765;-72
2023/12/18 11:49:13;;;;;;;;;;;18.50;53.50;;;;;;1565325;74;797;-72
2023/12/18 11:51:15;;;;;;;;;;;18.50;53.50;;;;;;1560769;74;784;-73
2023/12/18 11:53:20;;;;;;;;;;;18.60;53.50;;;;;;1578013;73;1167;-71
2023/12/18 11:55:41;;;;;;;;;;;18.50;53.50;;;;;;1562145;74;1360;-73
2023/12/18 11:57:43;;;;;;;;;;;18.50;53.40;;;;;;1566085;74;785;-73
2023/12/18 11:59:45;;;;;;;;;;;18.60;53.50;;;;;;1563225;74;1917;-73
2023/12/18 12:01:48;;;;;;;;;;;18.60;53.50;;;;;;1576689;74;774;-74
2023/12/18 12:03:50;;;;;;;;;;;18.60;53.40;;;;;;1577678;74;1242;-73
2023/12/18 12:05:52;;;;;;;;;;;18.50;53.50;;;;;;1566936;75;769;-74
2023/12/18 12:07:54;;;;;;;;;;;18.50;53.50;;;;;;1563661;74;665;-70